sensor_id;sensor_type;location;lat;lon;timestamp;temperature;humidity
46378;DHT22;32083;47.360;9.650;2023-06-01T04:02:54;14.50;99.90
46378;DHT22;32083;47.360;9.650;2023-06-01T04:05:21;14.50;99.90
46378;DHT22;32083;47.360;9.650;2023-06-01T04:07:48;14.50;99.90
46378;DHT22;32083;47.360;9.650;2023-06-01T04:10:15;14.50;99.90
46378;DHT22;32083;47.360;9.650;2023-06-01T04:12:46;14.50;99.90
46378;DHT22;32083;47.360;9.650;2023-06-01T04:15:13;14.50;99.90
46378;DHT22;32083;47.360;9.650;2023-06-01T04:17:42;14.50;99.90
46378;DHT22;32083;47.360;9.650;2023-06-01T04:20:15;14.50;99.90
46378;DHT22;32083;47.360;9.650;2023-06-01T04:22:42;14.60;99.90
46378;DHT22;32083;47.360;9.650;2023-06-01T04:25:11;14.60;99.90
46378;DHT22;32083;47.360;9.650;2023-06-01T04:27:42;14.60;99.90
46378;DHT22;32083;47.360;9.650;2023-06-01T04:30:11;14.70;99.90
46378;DHT22;32083;47.360;9.650;2023-06-01T04:32:38;14.70;99.90
46378;DHT22;32083;47.360;9.650;2023-06-01T04:35:06;14.80;99.90
46378;DHT22;32083;47.360;9.650;2023-06-01T04:37:33;14.80;99.90
46378;DHT22;32083;47.360;9.650;2023-06-01T04:40:03;14.90;99.90
46378;DHT22;32083;47.360;9.650;2023-06-01T04:42:37;15.10;99.90
46378;DHT22;32083;47.360;9.650;2023-06-01T04:45:15;15.30;99.90
46378;DHT22;32083;47.360;9.650;2023-06-01T04:47:41;15.80;99.90
46378;DHT22;32083;47.360;9.650;2023-06-01T04:50:11;16.40;99.90
46378;DHT22;32083;47.360;9.650;2023-06-01T04:52:41;16.90;99.90
46378;DHT22;32083;47.360;9.650;2023-06-01T04:55:09;17.30;99.90
46378;DHT22;32083;47.360;9.650;2023-06-01T04:57:36;17.70;99.90
46378;DHT22;32083;47.360;9.650;2023-06-01T05:00:05;17.90;99.90
46378;DHT22;32083;47.360;9.650;2023-06-01T05:02:37;18.10;99.90
46378;DHT22;32083;47.360;9.650;2023-06-01T05:05:04;18.20;99.90
46378;DHT22;32083;47.360;9.650;2023-06-01T05:07:30;18.30;99.90
46378;DHT22;32083;47.360;9.650;2023-06-01T05:09:57;18.50;99.90
46378;DHT22;32083;47.360;9.650;2023-06-01T05:12:23;18.70;99.90
46378;DHT22;32083;47.360;9.650;2023-06-01T05:14:49;18.70;99.90
46378;DHT22;32083;47.360;9.650;2023-06-01T05:17:15;18.80;99.90
46378;DHT22;32083;47.360;9.650;2023-06-01T05:19:41;19.10;99.90
46378;DHT22;32083;47.360;9.650;2023-06-01T05:22:07;19.30;99.90
46378;DHT22;32083;47.360;9.650;2023-06-01T05:24:33;19.30;99.90
46378;DHT22;32083;47.360;9.650;2023-06-01T05:26:59;19.50;99.90
46378;DHT22;32083;47.360;9.650;2023-06-01T05:29:25;19.20;99.00
46378;DHT22;32083;47.360;9.650;2023-06-01T05:31:51;19.00;98.60
46378;DHT22;32083;47.360;9.650;2023-06-01T05:34:17;19.30;99.00
46378;DHT22;32083;47.360;9.650;2023-06-01T05:36:43;19.50;98.60
46378;DHT22;32083;47.360;9.650;2023-06-01T05:39:09;19.30;97.70
46378;DHT22;32083;47.360;9.650;2023-06-01T05:41:36;19.40;98.40
46378;DHT22;32083;47.360;9.650;2023-06-01T05:44:02;19.50;98.30
46378;DHT22;32083;47.360;9.650;2023-06-01T05:46:28;19.30;99.10
46378;DHT22;32083;47.360;9.650;2023-06-01T05:48:54;19.60;99.20
46378;DHT22;32083;47.360;9.650;2023-06-01T05:51:21;20.00;99.00
46378;DHT22;32083;47.360;9.650;2023-06-01T05:53:46;19.90;98.10
46378;DHT22;32083;47.360;9.650;2023-06-01T05:56:12;20.10;97.80
46378;DHT22;32083;47.360;9.650;2023-06-01T05:58:38;19.80;97.50
46378;DHT22;32083;47.360;9.650;2023-06-01T06:01:05;19.70;98.20
46378;DHT22;32083;47.360;9.650;2023-06-01T06:03:31;19.60;97.70
46378;DHT22;32083;47.360;9.650;2023-06-01T06:05:57;19.70;97.60
46378;DHT22;32083;47.360;9.650;2023-06-01T06:08:23;19.70;97.80
46378;DHT22;32083;47.360;9.650;2023-06-01T06:10:49;19.80;97.50
46378;DHT22;32083;47.360;9.650;2023-06-01T06:13:15;19.90;96.90
46378;DHT22;32083;47.360;9.650;2023-06-01T06:15:42;19.90;96.60
46378;DHT22;32083;47.360;9.650;2023-06-01T06:18:10;19.90;96.20
46378;DHT22;32083;47.360;9.650;2023-06-01T06:20:46;20.10;96.80
46378;DHT22;32083;47.360;9.650;2023-06-01T06:23:25;19.90;96.00
46378;DHT22;32083;47.360;9.650;2023-06-01T06:26:21;19.60;96.60
46378;DHT22;32083;47.360;9.650;2023-06-01T06:28:52;19.40;96.70
46378;DHT22;32083;47.360;9.650;2023-06-01T06:31:44;19.30;96.70
46378;DHT22;32083;47.360;9.650;2023-06-01T06:34:19;19.50;97.20
46378;DHT22;32083;47.360;9.650;2023-06-01T06:41:57;19.80;97.30
46378;DHT22;32083;47.360;9.650;2023-06-01T06:44:23;19.80;97.20
46378;DHT22;32083;47.360;9.650;2023-06-01T06:46:50;19.90;97.30
46378;DHT22;32083;47.360;9.650;2023-06-01T06:49:16;19.90;97.30
46378;DHT22;32083;47.360;9.650;2023-06-01T06:51:47;20.00;97.10
46378;DHT22;32083;47.360;9.650;2023-06-01T06:54:21;20.10;97.40
46378;DHT22;32083;47.360;9.650;2023-06-01T06:56:50;20.20;96.40
46378;DHT22;32083;47.360;9.650;2023-06-01T06:59:29;20.20;96.80
46378;DHT22;32083;47.360;9.650;2023-06-01T07:02:21;20.10;96.30
46378;DHT22;32083;47.360;9.650;2023-06-01T07:05:03;20.20;96.90
46378;DHT22;32083;47.360;9.650;2023-06-01T07:08:09;20.30;96.60
46378;DHT22;32083;47.360;9.650;2023-06-01T07:10:48;20.40;96.70
46378;DHT22;32083;47.360;9.650;2023-06-01T07:13:16;20.40;96.50
46378;DHT22;32083;47.360;9.650;2023-06-01T07:15:42;20.40;96.20
46378;DHT22;32083;47.360;9.650;2023-06-01T07:18:11;20.20;96.50
46378;DHT22;32083;47.360;9.650;2023-06-01T07:20:37;20.40;96.60
46378;DHT22;32083;47.360;9.650;2023-06-01T07:23:05;20.50;96.80
46378;DHT22;32083;47.360;9.650;2023-06-01T07:25:33;20.60;96.60
46378;DHT22;32083;47.360;9.650;2023-06-01T07:27:59;20.60;96.60
46378;DHT22;32083;47.360;9.650;2023-06-01T07:30:25;20.70;96.20
46378;DHT22;32083;47.360;9.650;2023-06-01T07:32:51;20.20;96.50
46378;DHT22;32083;47.360;9.650;2023-06-01T07:35:17;20.60;96.60
46378;DHT22;32083;47.360;9.650;2023-06-01T07:37:43;20.60;95.60
46378;DHT22;32083;47.360;9.650;2023-06-01T07:40:10;20.90;96.40
46378;DHT22;32083;47.360;9.650;2023-06-01T07:42:37;20.60;96.30
46378;DHT22;32083;47.360;9.650;2023-06-01T07:45:03;20.80;95.70
46378;DHT22;32083;47.360;9.650;2023-06-01T07:47:29;20.60;95.10
46378;DHT22;32083;47.360;9.650;2023-06-01T07:49:56;20.80;95.60
46378;DHT22;32083;47.360;9.650;2023-06-01T07:52:22;20.60;95.30
46378;DHT22;32083;47.360;9.650;2023-06-01T07:54:53;20.90;95.40
46378;DHT22;32083;47.360;9.650;2023-06-01T07:57:19;20.50;94.60
46378;DHT22;32083;47.360;9.650;2023-06-01T07:59:44;20.80;95.10
46378;DHT22;32083;47.360;9.650;2023-06-01T08:02:10;20.80;95.20
46378;DHT22;32083;47.360;9.650;2023-06-01T08:04:38;20.70;94.30
46378;DHT22;32083;47.360;9.650;2023-06-01T08:07:04;21.00;95.00
46378;DHT22;32083;47.360;9.650;2023-06-01T08:09:32;21.10;94.30
46378;DHT22;32083;47.360;9.650;2023-06-01T08:11:57;20.90;94.60
46378;DHT22;32083;47.360;9.650;2023-06-01T08:14:23;21.20;94.60
46378;DHT22;32083;47.360;9.650;2023-06-01T08:16:50;21.20;94.40
46378;DHT22;32083;47.360;9.650;2023-06-01T08:19:19;21.20;94.40
46378;DHT22;32083;47.360;9.650;2023-06-01T08:21:45;21.30;93.80
46378;DHT22;32083;47.360;9.650;2023-06-01T08:24:12;21.00;94.60
46378;DHT22;32083;47.360;9.650;2023-06-01T08:26:38;21.00;94.40
46378;DHT22;32083;47.360;9.650;2023-06-01T08:29:05;21.10;94.50
46378;DHT22;32083;47.360;9.650;2023-06-01T08:31:31;21.10;94.90
46378;DHT22;32083;47.360;9.650;2023-06-01T08:33:59;21.30;94.30
46378;DHT22;32083;47.360;9.650;2023-06-01T08:36:29;21.50;94.40
46378;DHT22;32083;47.360;9.650;2023-06-01T08:39:42;21.50;94.40
46378;DHT22;32083;47.360;9.650;2023-06-01T08:42:06;21.60;93.90
46378;DHT22;32083;47.360;9.650;2023-06-01T08:44:42;21.40;93.90
46378;DHT22;32083;47.360;9.650;2023-06-01T08:47:08;21.50;94.40
46378;DHT22;32083;47.360;9.650;2023-06-01T08:49:35;21.60;94.20
46378;DHT22;32083;47.360;9.650;2023-06-01T08:52:13;21.60;93.40
46378;DHT22;32083;47.360;9.650;2023-06-01T08:54:40;21.50;93.90
46378;DHT22;32083;47.360;9.650;2023-06-01T08:57:09;21.60;94.20
46378;DHT22;32083;47.360;9.650;2023-06-01T08:59:35;21.70;93.30
46378;DHT22;32083;47.360;9.650;2023-06-01T09:02:03;21.70;93.30
46378;DHT22;32083;47.360;9.650;2023-06-01T09:04:31;21.50;93.50
46378;DHT22;32083;47.360;9.650;2023-06-01T09:06:58;21.70;94.20
46378;DHT22;32083;47.360;9.650;2023-06-01T09:09:25;21.80;93.70
46378;DHT22;32083;47.360;9.650;2023-06-01T09:12:28;21.50;93.40
46378;DHT22;32083;47.360;9.650;2023-06-01T09:15:20;21.60;93.80
46378;DHT22;32083;47.360;9.650;2023-06-01T09:17:50;21.70;93.80
46378;DHT22;32083;47.360;9.650;2023-06-01T09:20:28;21.70;93.60
46378;DHT22;32083;47.360;9.650;2023-06-01T09:22:57;21.60;93.70
46378;DHT22;32083;47.360;9.650;2023-06-01T09:25:28;21.60;93.60
46378;DHT22;32083;47.360;9.650;2023-06-01T09:27:57;21.70;93.30
46378;DHT22;32083;47.360;9.650;2023-06-01T09:30:47;21.80;93.20
46378;DHT22;32083;47.360;9.650;2023-06-01T09:33:16;21.90;93.60
46378;DHT22;32083;47.360;9.650;2023-06-01T09:35:49;21.80;93.70
46378;DHT22;32083;47.360;9.650;2023-06-01T09:38:24;21.60;92.90
46378;DHT22;32083;47.360;9.650;2023-06-01T09:41:01;21.50;93.10
46378;DHT22;32083;47.360;9.650;2023-06-01T09:43:29;21.70;93.80
46378;DHT22;32083;47.360;9.650;2023-06-01T09:46:10;21.70;93.00
46378;DHT22;32083;47.360;9.650;2023-06-01T09:48:39;21.90;92.60
46378;DHT22;32083;47.360;9.650;2023-06-01T09:51:24;21.90;93.00
46378;DHT22;32083;47.360;9.650;2023-06-01T09:53:54;21.90;92.30
46378;DHT22;32083;47.360;9.650;2023-06-01T09:56:20;22.00;93.30
46378;DHT22;32083;47.360;9.650;2023-06-01T09:58:56;22.10;93.00
46378;DHT22;32083;47.360;9.650;2023-06-01T10:01:22;22.10;92.60
46378;DHT22;32083;47.360;9.650;2023-06-01T10:03:49;22.10;92.90
46378;DHT22;32083;47.360;9.650;2023-06-01T10:06:19;22.10;92.00
46378;DHT22;32083;47.360;9.650;2023-06-01T10:08:45;22.00;91.80
46378;DHT22;32083;47.360;9.650;2023-06-01T10:11:13;21.90;91.80
46378;DHT22;32083;47.360;9.650;2023-06-01T10:13:39;22.10;92.40
46378;DHT22;32083;47.360;9.650;2023-06-01T10:16:06;22.20;92.20
46378;DHT22;32083;47.360;9.650;2023-06-01T10:20:58;22.40;91.10
46378;DHT22;32083;47.360;9.650;2023-06-01T10:23:24;22.40;91.20
46378;DHT22;32083;47.360;9.650;2023-06-01T10:25:51;22.40;90.80
46378;DHT22;32083;47.360;9.650;2023-06-01T10:28:18;22.40;91.20
46378;DHT22;32083;47.360;9.650;2023-06-01T10:30:45;22.50;90.40
46378;DHT22;32083;47.360;9.650;2023-06-01T10:33:11;22.40;90.40
46378;DHT22;32083;47.360;9.650;2023-06-01T10:40:36;22.60;89.70
46378;DHT22;32083;47.360;9.650;2023-06-01T10:43:03;22.60;90.20
46378;DHT22;32083;47.360;9.650;2023-06-01T10:45:39;22.60;88.70
46378;DHT22;32083;47.360;9.650;2023-06-01T10:48:12;22.70;90.40
46378;DHT22;32083;47.360;9.650;2023-06-01T10:50:42;22.70;90.90
46378;DHT22;32083;47.360;9.650;2023-06-01T10:53:37;22.70;90.30
46378;DHT22;32083;47.360;9.650;2023-06-01T11:01:33;22.90;86.80
46378;DHT22;32083;47.360;9.650;2023-06-01T11:03:59;23.00;87.30
46378;DHT22;32083;47.360;9.650;2023-06-01T11:06:36;22.90;86.90
46378;DHT22;32083;47.360;9.650;2023-06-01T11:09:04;23.10;87.10
46378;DHT22;32083;47.360;9.650;2023-06-01T11:14:20;23.20;87.20
46378;DHT22;32083;47.360;9.650;2023-06-01T11:16:46;23.40;86.10
46378;DHT22;32083;47.360;9.650;2023-06-01T11:19:23;23.40;85.90
46378;DHT22;32083;47.360;9.650;2023-06-01T11:21:59;23.50;85.70
46378;DHT22;32083;47.360;9.650;2023-06-01T11:24:35;23.50;87.20
46378;DHT22;32083;47.360;9.650;2023-06-01T11:27:06;23.40;87.20
46378;DHT22;32083;47.360;9.650;2023-06-01T11:29:33;23.50;86.80
46378;DHT22;32083;47.360;9.650;2023-06-01T11:32:00;23.60;87.20
46378;DHT22;32083;47.360;9.650;2023-06-01T11:34:33;23.60;87.00
46378;DHT22;32083;47.360;9.650;2023-06-01T11:37:00;23.60;87.10
46378;DHT22;32083;47.360;9.650;2023-06-01T11:39:27;23.80;85.80
46378;DHT22;32083;47.360;9.650;2023-06-01T11:42:10;23.80;85.80
46378;DHT22;32083;47.360;9.650;2023-06-01T11:44:38;23.80;84.70
46378;DHT22;32083;47.360;9.650;2023-06-01T11:47:05;23.80;84.10
46378;DHT22;32083;47.360;9.650;2023-06-01T11:49:39;24.00;86.20
46378;DHT22;32083;47.360;9.650;2023-06-01T11:52:08;24.10;86.20
46378;DHT22;32083;47.360;9.650;2023-06-01T11:54:35;24.00;84.50
46378;DHT22;32083;47.360;9.650;2023-06-01T11:57:03;24.20;84.50
46378;DHT22;32083;47.360;9.650;2023-06-01T11:59:47;24.10;85.80
46378;DHT22;32083;47.360;9.650;2023-06-01T12:02:39;24.30;86.20
46378;DHT22;32083;47.360;9.650;2023-06-01T12:05:08;24.30;85.50
46378;DHT22;32083;47.360;9.650;2023-06-01T12:07:48;24.40;85.10
46378;DHT22;32083;47.360;9.650;2023-06-01T12:10:16;24.40;83.40
46378;DHT22;32083;47.360;9.650;2023-06-01T12:12:42;24.50;85.80
46378;DHT22;32083;47.360;9.650;2023-06-01T12:15:13;24.60;83.50
46378;DHT22;32083;47.360;9.650;2023-06-01T12:17:50;24.60;85.30
46378;DHT22;32083;47.360;9.650;2023-06-01T12:20:30;24.70;85.10
46378;DHT22;32083;47.360;9.650;2023-06-01T12:22:57;24.80;85.00
46378;DHT22;32083;47.360;9.650;2023-06-01T12:25:24;24.80;82.40
46378;DHT22;32083;47.360;9.650;2023-06-01T12:28:07;25.00;84.90
46378;DHT22;32083;47.360;9.650;2023-06-01T12:30:34;25.00;82.70
46378;DHT22;32083;47.360;9.650;2023-06-01T12:33:00;24.90;81.80
46378;DHT22;32083;47.360;9.650;2023-06-01T12:35:26;25.00;82.30
46378;DHT22;32083;47.360;9.650;2023-06-01T12:38:09;25.10;81.80
46378;DHT22;32083;47.360;9.650;2023-06-01T12:40:38;25.20;80.00
46378;DHT22;32083;47.360;9.650;2023-06-01T12:43:05;25.20;80.20
46378;DHT22;32083;47.360;9.650;2023-06-01T12:45:37;25.30;82.00
46378;DHT22;32083;47.360;9.650;2023-06-01T12:48:04;25.50;80.20
46378;DHT22;32083;47.360;9.650;2023-06-01T12:50:30;25.60;78.80
46378;DHT22;32083;47.360;9.650;2023-06-01T12:52:56;25.60;77.90
46378;DHT22;32083;47.360;9.650;2023-06-01T12:55:21;25.60;79.40
46378;DHT22;32083;47.360;9.650;2023-06-01T12:57:54;25.60;79.90
46378;DHT22;32083;47.360;9.650;2023-06-01T13:00:21;25.60;77.80
46378;DHT22;32083;47.360;9.650;2023-06-01T13:02:47;25.70;79.00
46378;DHT22;32083;47.360;9.650;2023-06-01T13:05:16;26.00;79.10
46378;DHT22;32083;47.360;9.650;2023-06-01T13:07:46;26.00;76.70
46378;DHT22;32083;47.360;9.650;2023-06-01T13:10:12;26.00;75.40
46378;DHT22;32083;47.360;9.650;2023-06-01T13:12:38;26.10;77.10
46378;DHT22;32083;47.360;9.650;2023-06-01T13:15:06;26.10;76.10
46378;DHT22;32083;47.360;9.650;2023-06-01T13:17:33;26.30;76.00
46378;DHT22;32083;47.360;9.650;2023-06-01T13:19:58;26.40;76.40
46378;DHT22;32083;47.360;9.650;2023-06-01T13:22:24;26.50;76.50
46378;DHT22;32083;47.360;9.650;2023-06-01T13:24:50;26.50;75.50
46378;DHT22;32083;47.360;9.650;2023-06-01T13:27:16;26.60;76.30
46378;DHT22;32083;47.360;9.650;2023-06-01T13:29:42;26.70;73.60
46378;DHT22;32083;47.360;9.650;2023-06-01T13:32:08;26.70;73.40
46378;DHT22;32083;47.360;9.650;2023-06-01T13:34:34;26.80;76.40
46378;DHT22;32083;47.360;9.650;2023-06-01T13:37:01;27.00;75.00
46378;DHT22;32083;47.360;9.650;2023-06-01T13:39:27;27.00;73.20
46378;DHT22;32083;47.360;9.650;2023-06-01T13:41:53;27.10;74.20
46378;DHT22;32083;47.360;9.650;2023-06-01T13:44:19;27.00;74.10
46378;DHT22;32083;47.360;9.650;2023-06-01T13:46:44;26.80;73.70
46378;DHT22;32083;47.360;9.650;2023-06-01T13:49:10;26.80;75.60
46378;DHT22;32083;47.360;9.650;2023-06-01T13:51:36;26.40;74.30
46378;DHT22;32083;47.360;9.650;2023-06-01T13:54:05;26.40;77.90
46378;DHT22;32083;47.360;9.650;2023-06-01T13:56:31;26.10;78.80
46378;DHT22;32083;47.360;9.650;2023-06-01T13:58:57;25.90;78.30
46378;DHT22;32083;47.360;9.650;2023-06-01T14:01:23;25.80;78.60
46378;DHT22;32083;47.360;9.650;2023-06-01T14:03:49;25.90;79.00
46378;DHT22;32083;47.360;9.650;2023-06-01T14:06:15;25.90;77.80
46378;DHT22;32083;47.360;9.650;2023-06-01T14:08:42;25.90;76.60
46378;DHT22;32083;47.360;9.650;2023-06-01T14:11:07;25.90;76.80
46378;DHT22;32083;47.360;9.650;2023-06-01T14:13:33;25.90;77.90
46378;DHT22;32083;47.360;9.650;2023-06-01T14:16:00;25.80;79.10
46378;DHT22;32083;47.360;9.650;2023-06-01T14:18:25;25.60;77.40
46378;DHT22;32083;47.360;9.650;2023-06-01T14:20:52;25.60;78.60
46378;DHT22;32083;47.360;9.650;2023-06-01T14:23:18;25.50;77.40
46378;DHT22;32083;47.360;9.650;2023-06-01T14:25:44;25.60;79.90
46378;DHT22;32083;47.360;9.650;2023-06-01T14:28:10;25.50;77.10
46378;DHT22;32083;47.360;9.650;2023-06-01T14:30:37;25.50;77.90
46378;DHT22;32083;47.360;9.650;2023-06-01T14:33:03;25.40;77.50
46378;DHT22;32083;47.360;9.650;2023-06-01T14:35:29;25.30;76.20
46378;DHT22;32083;47.360;9.650;2023-06-01T14:37:55;25.30;75.50
46378;DHT22;32083;47.360;9.650;2023-06-01T14:40:24;25.30;77.90
46378;DHT22;32083;47.360;9.650;2023-06-01T14:42:50;25.30;77.00
46378;DHT22;32083;47.360;9.650;2023-06-01T14:45:16;25.20;76.90
46378;DHT22;32083;47.360;9.650;2023-06-01T14:47:45;25.10;76.70
46378;DHT22;32083;47.360;9.650;2023-06-01T14:50:11;25.10;79.00
46378;DHT22;32083;47.360;9.650;2023-06-01T14:52:36;25.10;77.80
46378;DHT22;32083;47.360;9.650;2023-06-01T14:55:02;25.00;77.90
46378;DHT22;32083;47.360;9.650;2023-06-01T14:57:28;25.00;80.20
46378;DHT22;32083;47.360;9.650;2023-06-01T14:59:54;24.90;80.80
46378;DHT22;32083;47.360;9.650;2023-06-01T15:02:20;25.00;80.50
46378;DHT22;32083;47.360;9.650;2023-06-01T15:04:54;24.90;80.70
46378;DHT22;32083;47.360;9.650;2023-06-01T15:07:19;24.90;81.30
46378;DHT22;32083;47.360;9.650;2023-06-01T15:09:45;24.80;81.90
46378;DHT22;32083;47.360;9.650;2023-06-01T15:12:11;24.70;82.40
46378;DHT22;32083;47.360;9.650;2023-06-01T15:14:38;24.70;83.10
46378;DHT22;32083;47.360;9.650;2023-06-01T15:17:04;24.60;82.20
46378;DHT22;32083;47.360;9.650;2023-06-01T15:19:30;24.40;82.70
46378;DHT22;32083;47.360;9.650;2023-06-01T15:21:55;24.40;82.50
46378;DHT22;32083;47.360;9.650;2023-06-01T15:24:21;24.40;82.90
46378;DHT22;32083;47.360;9.650;2023-06-01T15:26:47;24.40;83.30
46378;DHT22;32083;47.360;9.650;2023-06-01T15:29:13;24.40;83.10
46378;DHT22;32083;47.360;9.650;2023-06-01T15:31:39;24.20;83.10
46378;DHT22;32083;47.360;9.650;2023-06-01T15:34:07;24.10;82.20
46378;DHT22;32083;47.360;9.650;2023-06-01T15:36:38;24.10;83.20
46378;DHT22;32083;47.360;9.650;2023-06-01T15:39:03;24.20;80.60
46378;DHT22;32083;47.360;9.650;2023-06-01T15:41:30;24.20;79.80
46378;DHT22;32083;47.360;9.650;2023-06-01T15:43:56;24.10;80.00
46378;DHT22;32083;47.360;9.650;2023-06-01T15:46:22;24.10;80.90
46378;DHT22;32083;47.360;9.650;2023-06-01T15:48:47;24.00;78.50
46378;DHT22;32083;47.360;9.650;2023-06-01T15:51:13;24.00;80.20
46378;DHT22;32083;47.360;9.650;2023-06-01T15:53:39;24.00;78.30
46378;DHT22;32083;47.360;9.650;2023-06-01T15:56:07;24.00;78.40
46378;DHT22;32083;47.360;9.650;2023-06-01T15:58:37;24.10;75.70
46378;DHT22;32083;47.360;9.650;2023-06-01T16:01:02;24.00;77.30
46378;DHT22;32083;47.360;9.650;2023-06-01T16:03:28;24.00;79.00
46378;DHT22;32083;47.360;9.650;2023-06-01T16:05:54;24.00;83.70
46378;DHT22;32083;47.360;9.650;2023-06-01T16:08:20;23.90;86.90
46378;DHT22;32083;47.360;9.650;2023-06-01T16:10:45;23.80;87.10
46378;DHT22;32083;47.360;9.650;2023-06-01T16:13:11;23.70;86.80
46378;DHT22;32083;47.360;9.650;2023-06-01T16:15:37;23.70;86.90
46378;DHT22;32083;47.360;9.650;2023-06-01T16:18:03;23.70;87.90
46378;DHT22;32083;47.360;9.650;2023-06-01T16:20:28;23.70;86.70
46378;DHT22;32083;47.360;9.650;2023-06-01T16:22:54;23.70;87.10
46378;DHT22;32083;47.360;9.650;2023-06-01T16:25:20;23.70;87.80
46378;DHT22;32083;47.360;9.650;2023-06-01T16:27:49;23.70;87.70
46378;DHT22;32083;47.360;9.650;2023-06-01T16:30:16;23.80;87.50
46378;DHT22;32083;47.360;9.650;2023-06-01T16:32:42;23.80;85.60
46378;DHT22;32083;47.360;9.650;2023-06-01T16:35:08;23.80;89.00
46378;DHT22;32083;47.360;9.650;2023-06-01T16:37:36;23.80;88.50
46378;DHT22;32083;47.360;9.650;2023-06-01T16:40:03;23.80;87.90
46378;DHT22;32083;47.360;9.650;2023-06-01T16:42:29;23.70;88.70
46378;DHT22;32083;47.360;9.650;2023-06-01T16:44:55;23.70;88.30
46378;DHT22;32083;47.360;9.650;2023-06-01T16:47:21;23.60;89.00
46378;DHT22;32083;47.360;9.650;2023-06-01T16:49:47;23.70;89.90
46378;DHT22;32083;47.360;9.650;2023-06-01T16:52:13;23.70;90.00
46378;DHT22;32083;47.360;9.650;2023-06-01T16:54:39;23.60;90.20
46378;DHT22;32083;47.360;9.650;2023-06-01T16:57:05;23.60;89.90
46378;DHT22;32083;47.360;9.650;2023-06-01T16:59:35;23.70;90.00
46378;DHT22;32083;47.360;9.650;2023-06-01T17:02:01;23.70;89.90
46378;DHT22;32083;47.360;9.650;2023-06-01T17:04:27;23.70;90.50
46378;DHT22;32083;47.360;9.650;2023-06-01T17:06:53;23.70;90.30
46378;DHT22;32083;47.360;9.650;2023-06-01T17:09:19;23.70;90.70
46378;DHT22;32083;47.360;9.650;2023-06-01T17:11:45;23.80;90.10
46378;DHT22;32083;47.360;9.650;2023-06-01T17:14:14;23.80;90.20
46378;DHT22;32083;47.360;9.650;2023-06-01T17:16:40;23.90;90.30
46378;DHT22;32083;47.360;9.650;2023-06-01T17:19:06;24.00;90.30
46378;DHT22;32083;47.360;9.650;2023-06-01T17:21:32;24.00;90.00
46378;DHT22;32083;47.360;9.650;2023-06-01T17:23:58;24.00;88.90
46378;DHT22;32083;47.360;9.650;2023-06-01T17:26:24;24.00;87.60
46378;DHT22;32083;47.360;9.650;2023-06-01T17:28:51;23.90;87.10
46378;DHT22;32083;47.360;9.650;2023-06-01T17:31:17;23.90;86.70
46378;DHT22;32083;47.360;9.650;2023-06-01T17:33:43;23.90;87.50
46378;DHT22;32083;47.360;9.650;2023-06-01T17:36:09;23.90;88.70
46378;DHT22;32083;47.360;9.650;2023-06-01T17:38:35;23.90;87.90
46378;DHT22;32083;47.360;9.650;2023-06-01T17:41:01;23.90;88.40
46378;DHT22;32083;47.360;9.650;2023-06-01T17:43:27;23.90;88.10
46378;DHT22;32083;47.360;9.650;2023-06-01T17:45:53;23.90;88.40
46378;DHT22;32083;47.360;9.650;2023-06-01T17:48:19;23.80;89.30
46378;DHT22;32083;47.360;9.650;2023-06-01T17:50:45;23.80;88.10
46378;DHT22;32083;47.360;9.650;2023-06-01T17:53:11;23.70;87.30
46378;DHT22;32083;47.360;9.650;2023-06-01T17:55:38;23.80;88.20
46378;DHT22;32083;47.360;9.650;2023-06-01T17:58:04;23.70;87.20
46378;DHT22;32083;47.360;9.650;2023-06-01T18:00:30;23.60;87.70
46378;DHT22;32083;47.360;9.650;2023-06-01T18:02:57;23.60;88.20
46378;DHT22;32083;47.360;9.650;2023-06-01T18:05:23;23.60;90.20
46378;DHT22;32083;47.360;9.650;2023-06-01T18:07:49;23.60;89.70
46378;DHT22;32083;47.360;9.650;2023-06-01T18:10:15;23.50;90.00
46378;DHT22;32083;47.360;9.650;2023-06-01T18:12:41;23.50;90.00
46378;DHT22;32083;47.360;9.650;2023-06-01T18:15:07;23.50;90.00
46378;DHT22;32083;47.360;9.650;2023-06-01T18:17:33;23.50;88.90
46378;DHT22;32083;47.360;9.650;2023-06-01T18:19:59;23.50;90.40
46378;DHT22;32083;47.360;9.650;2023-06-01T18:22:25;23.40;90.40
46378;DHT22;32083;47.360;9.650;2023-06-01T18:24:51;23.30;90.40
46378;DHT22;32083;47.360;9.650;2023-06-01T18:27:18;23.30;90.30
46378;DHT22;32083;47.360;9.650;2023-06-01T18:29:44;23.20;90.60
46378;DHT22;32083;47.360;9.650;2023-06-01T18:32:10;23.10;90.30
46378;DHT22;32083;47.360;9.650;2023-06-01T18:34:36;23.10;90.60
46378;DHT22;32083;47.360;9.650;2023-06-01T18:37:02;23.00;90.30
46378;DHT22;32083;47.360;9.650;2023-06-01T18:39:28;22.80;90.00
46378;DHT22;32083;47.360;9.650;2023-06-01T18:41:54;22.80;89.80
46378;DHT22;32083;47.360;9.650;2023-06-01T18:44:20;22.70;90.30
46378;DHT22;32083;47.360;9.650;2023-06-01T18:46:46;22.50;90.30
46378;DHT22;32083;47.360;9.650;2023-06-01T18:49:17;22.50;90.40
46378;DHT22;32083;47.360;9.650;2023-06-01T18:51:44;22.40;90.40
46378;DHT22;32083;47.360;9.650;2023-06-01T18:54:10;22.30;90.40
46378;DHT22;32083;47.360;9.650;2023-06-01T18:56:36;22.30;90.70
46378;DHT22;32083;47.360;9.650;2023-06-01T18:59:02;22.20;91.00
46378;DHT22;32083;47.360;9.650;2023-06-01T19:01:29;22.00;90.80
46378;DHT22;32083;47.360;9.650;2023-06-01T19:03:55;22.00;91.10
46378;DHT22;32083;47.360;9.650;2023-06-01T19:06:21;21.90;90.90
46378;DHT22;32083;47.360;9.650;2023-06-01T19:08:47;21.80;90.90
46378;DHT22;32083;47.360;9.650;2023-06-01T19:11:15;21.70;91.00
46378;DHT22;32083;47.360;9.650;2023-06-01T19:13:47;21.70;90.80
46378;DHT22;32083;47.360;9.650;2023-06-01T19:16:29;21.60;91.00
46378;DHT22;32083;47.360;9.650;2023-06-01T19:18:58;21.50;91.20
46378;DHT22;32083;47.360;9.650;2023-06-01T19:21:29;21.40;91.20
46378;DHT22;32083;47.360;9.650;2023-06-01T19:24:04;21.40;91.40
46378;DHT22;32083;47.360;9.650;2023-06-01T19:26:32;21.40;91.30
46378;DHT22;32083;47.360;9.650;2023-06-01T19:29:00;21.30;91.30
46378;DHT22;32083;47.360;9.650;2023-06-01T19:31:29;21.30;91.40
46378;DHT22;32083;47.360;9.650;2023-06-01T19:33:56;21.20;91.50
46378;DHT22;32083;47.360;9.650;2023-06-01T19:41:39;21.10;92.10
46378;DHT22;32083;47.360;9.650;2023-06-01T19:44:12;21.00;92.50
46378;DHT22;32083;47.360;9.650;2023-06-01T19:46:38;20.90;92.30
46378;DHT22;32083;47.360;9.650;2023-06-01T19:49:04;20.90;92.60
46378;DHT22;32083;47.360;9.650;2023-06-01T19:51:31;20.90;92.60
46378;DHT22;32083;47.360;9.650;2023-06-01T19:53:58;20.80;92.70
46378;DHT22;32083;47.360;9.650;2023-06-01T19:56:35;20.80;92.80
46378;DHT22;32083;47.360;9.650;2023-06-01T19:59:05;20.80;92.90
46378;DHT22;32083;47.360;9.650;2023-06-01T20:01:39;20.70;92.80
46378;DHT22;32083;47.360;9.650;2023-06-01T20:04:07;20.60;92.80
46378;DHT22;32083;47.360;9.650;2023-06-01T20:06:39;20.60;93.10